Time;durP1;ratioP1;P1;durP2;ratioP2;P2;SDS_P1;SDS_P2;PMS_P1;PMS_P2;Temp;Humidity;BMP_temperature;BMP_pressure;BME280_temperature;BME280_humidity;BME280_pressure;Samples;Min_cycle;Max_cycle;Signal;HPM_P1;HPM_P2
2023/01/28 00:01:26;;;;;;;4.57;3.00;;;1.70;99.90;;;;;;6241338;23;20148;-84
2023/01/28 00:03:52;;;;;;;6.27;3.60;;;1.60;99.90;;;;;;6239566;23;20163;-84
2023/01/28 00:06:18;;;;;;;4.97;3.70;;;1.60;99.90;;;;;;6238962;23;20171;-84
2023/01/28 00:08:43;;;;;;;5.47;3.10;;;1.60;99.90;;;;;;6236795;23;20160;-83
2023/01/28 00:11:11;;;;;;;5.50;3.30;;;1.60;99.90;;;;;;6238741;23;20156;-82
2023/01/28 00:13:37;;;;;;;4.80;3.65;;;1.60;99.90;;;;;;6240828;22;20152;-84
2023/01/28 00:16:06;;;;;;;5.28;3.67;;;1.80;99.90;;;;;;6248760;22;20177;-82
2023/01/28 00:18:32;;;;;;;5.47;3.10;;;1.80;99.90;;;;;;6240096;23;20184;-85
2023/01/28 00:21:04;;;;;;;6.13;3.55;;;1.90;99.90;;;;;;6239301;23;20231;-84
2023/01/28 00:23:35;;;;;;;3.97;3.08;;;1.80;99.90;;;;;;6241194;23;20152;-81
2023/01/28 00:26:02;;;;;;;4.53;3.80;;;1.60;99.90;;;;;;6241348;22;20169;-85
2023/01/28 00:28:28;;;;;;;4.72;3.38;;;1.60;99.90;;;;;;6240665;23;20234;-85
2023/01/28 00:30:53;;;;;;;8.10;3.50;;;1.70;99.90;;;;;;6240349;23;20160;-83
2023/01/28 00:33:19;;;;;;;5.30;3.60;;;1.70;99.90;;;;;;6240325;23;20187;-85
2023/01/28 00:35:45;;;;;;;8.67;4.40;;;1.80;99.90;;;;;;6240892;23;20255;-85
2023/01/28 00:38:11;;;;;;;7.05;4.20;;;1.80;99.90;;;;;;6239405;22;20564;-82
2023/01/28 00:40:37;;;;;;;3.33;2.60;;;1.80;99.90;;;;;;6239151;23;20231;-83
2023/01/28 00:43:02;;;;;;;6.10;3.27;;;1.80;99.90;;;;;;6239934;23;20399;-83
2023/01/28 00:45:28;;;;;;;8.63;3.87;;;1.70;99.90;;;;;;6239170;23;20200;-83
2023/01/28 00:47:53;;;;;;;4.03;3.30;;;1.70;99.90;;;;;;6240708;23;20148;-80
2023/01/28 00:50:20;;;;;;;5.57;4.20;;;1.70;99.90;;;;;;6241982;23;20204;-84
2023/01/28 00:52:46;;;;;;;4.18;3.05;;;1.80;99.90;;;;;;6238451;23;20157;-84
2023/01/28 00:55:13;;;;;;;7.00;3.53;;;1.80;99.90;;;;;;6241482;22;20549;-83
2023/01/28 00:57:38;;;;;;;7.15;3.60;;;1.90;99.90;;;;;;6239839;23;20556;-82
2023/01/28 01:00:05;;;;;;;7.60;4.00;;;1.80;99.90;;;;;;6250848;23;20166;-84
2023/01/28 01:02:30;;;;;;;3.92;3.55;;;1.60;99.90;;;;;;6249484;23;20157;-82
2023/01/28 01:04:59;;;;;;;6.13;3.50;;;1.50;99.90;;;;;;6243478;23;20179;-85
2023/01/28 01:07:40;;;;;;;7.55;4.25;;;1.50;99.90;;;;;;6240780;23;20164;-81
2023/01/28 01:10:10;;;;;;;6.60;3.15;;;1.40;99.90;;;;;;6241143;23;20649;-83
2023/01/28 01:12:37;;;;;;;5.03;3.55;;;1.40;99.90;;;;;;6238534;23;20148;-84
2023/01/28 01:15:07;;;;;;;6.68;3.92;;;1.50;99.90;;;;;;6239290;23;20940;-84
2023/01/28 01:17:33;;;;;;;5.78;3.90;;;1.50;99.90;;;;;;6238048;23;20175;-83
2023/01/28 01:19:58;;;;;;;5.37;3.57;;;1.50;99.90;;;;;;6240114;23;20152;-85
2023/01/28 01:22:24;;;;;;;4.97;3.37;;;1.60;99.90;;;;;;6240177;23;20182;-85
2023/01/28 01:24:49;;;;;;;7.40;3.20;;;1.70;99.90;;;;;;6238644;23;20176;-84
2023/01/28 01:27:15;;;;;;;5.80;3.90;;;1.80;99.90;;;;;;6241095;23;20594;-84
2023/01/28 01:29:40;;;;;;;3.33;2.80;;;1.90;99.90;;;;;;6239628;23;20157;-82
2023/01/28 01:32:06;;;;;;;3.60;2.90;;;2.00;99.90;;;;;;6242528;23;20153;-81
2023/01/28 01:34:31;;;;;;;5.07;3.10;;;2.00;99.90;;;;;;6243115;23;20149;-81
2023/01/28 01:36:57;;;;;;;4.53;3.03;;;2.00;99.90;;;;;;6242238;23;20145;-83
2023/01/28 01:39:22;;;;;;;6.90;3.30;;;2.00;99.90;;;;;;6235526;23;20536;-84
2023/01/28 01:41:48;;;;;;;6.13;3.43;;;2.00;99.90;;;;;;6239201;23;20186;-82
2023/01/28 01:45:05;;;;;;;5.27;3.27;;;2.10;99.90;;;;;;6239317;23;20156;-83
2023/01/28 01:47:37;;;;;;;6.03;3.35;;;2.10;99.90;;;;;;6179982;22;20210;-81
2023/01/28 01:50:11;;;;;;;3.63;2.95;;;2.20;99.90;;;;;;6238440;23;20162;-80
2023/01/28 01:52:37;;;;;;;5.50;3.92;;;2.20;99.90;;;;;;6238919;23;20404;-83
2023/01/28 01:55:10;;;;;;;6.10;3.50;;;2.20;99.90;;;;;;6246273;23;20206;-83
2023/01/28 01:57:36;;;;;;;5.95;3.95;;;2.30;99.90;;;;;;6241893;22;20160;-85
2023/01/28 02:00:05;;;;;;;5.60;3.33;;;2.30;99.90;;;;;;6237138;23;20649;-83
2023/01/28 02:02:46;;;;;;;3.70;2.72;;;2.20;99.90;;;;;;6236552;22;20360;-84
2023/01/28 02:05:14;;;;;;;7.53;4.05;;;1.90;99.90;;;;;;6233190;22;20224;-82
2023/01/28 02:07:41;;;;;;;4.45;3.50;;;1.80;99.90;;;;;;6231727;23;20484;-82
2023/01/28 02:10:09;;;;;;;6.07;3.58;;;1.80;99.90;;;;;;6235488;23;20160;-84
2023/01/28 02:12:38;;;;;;;6.43;3.70;;;1.90;99.90;;;;;;6229530;23;20163;-81
2023/01/28 02:15:16;;;;;;;6.53;4.10;;;2.00;99.90;;;;;;6234534;23;20921;-85
2023/01/28 02:17:42;;;;;;;5.47;3.83;;;2.00;99.90;;;;;;6240224;22;20255;-82
2023/01/28 02:20:18;;;;;;;6.85;4.13;;;2.20;99.90;;;;;;6236945;23;20163;-82
2023/01/28 02:22:59;;;;;;;9.25;4.10;;;2.20;99.90;;;;;;6235646;23;20839;-81
2023/01/28 02:25:43;;;;;;;6.80;3.92;;;2.20;99.90;;;;;;6234989;23;20609;-83
2023/01/28 02:28:13;;;;;;;8.73;3.90;;;2.20;99.90;;;;;;6233509;23;20156;-81
2023/01/28 02:30:45;;;;;;;6.38;3.70;;;2.10;99.90;;;;;;6234504;23;20152;-82
2023/01/28 02:33:49;;;;;;;6.63;3.40;;;2.00;99.90;;;;;;6236311;22;20210;-81
2023/01/28 02:36:40;;;;;;;9.85;4.43;;;2.00;99.90;;;;;;6226856;23;20176;-81
2023/01/28 02:39:12;;;;;;;6.47;4.47;;;2.10;99.90;;;;;;6235293;22;20168;-81
2023/01/28 02:41:46;;;;;;;5.70;3.70;;;2.10;99.90;;;;;;6234936;23;20151;-82
2023/01/28 02:44:12;;;;;;;8.40;3.75;;;2.20;99.90;;;;;;6233594;23;20144;-82
2023/01/28 02:49:26;;;;;;;6.10;4.22;;;2.20;99.90;;;;;;6236940;23;20280;-80
2023/01/28 02:52:18;;;;;;;6.07;3.90;;;2.30;99.90;;;;;;6240498;22;20152;-82
2023/01/28 02:55:14;;;;;;;5.80;3.90;;;2.30;99.90;;;;;;6238618;23;20176;-82
2023/01/28 02:57:47;;;;;;;6.50;4.15;;;2.20;99.90;;;;;;6240934;23;20245;-83
2023/01/28 03:00:27;;;;;;;7.22;3.92;;;2.20;99.90;;;;;;6252271;23;20235;-79
2023/01/28 03:03:17;;;;;;;10.50;5.40;;;2.30;99.90;;;;;;6257608;23;20139;-80
2023/01/28 03:06:05;;;;;;;6.07;4.10;;;2.30;99.90;;;;;;6254797;23;20202;-80
2023/01/28 03:36:54;;;;;;;6.90;3.80;;;2.40;99.90;;;;;;6243256;23;20318;-81
2023/01/28 03:39:27;;;;;;;7.15;3.92;;;2.50;99.90;;;;;;6245153;23;20172;-82
2023/01/28 03:42:03;;;;;;;7.88;4.15;;;2.50;99.90;;;;;;6241316;23;20681;-83
2023/01/28 03:47:14;;;;;;;7.70;4.30;;;2.40;99.90;;;;;;6243222;23;20168;-85
2023/01/28 03:49:45;;;;;;;6.50;3.65;;;2.50;99.90;;;;;;6242361;23;20156;-82
2023/01/28 03:52:11;;;;;;;5.40;4.32;;;2.50;99.90;;;;;;6241095;23;20240;-82
2023/01/28 03:54:37;;;;;;;7.97;4.85;;;2.60;99.90;;;;;;6239769;23;20206;-84
2023/01/28 03:57:05;;;;;;;7.60;4.65;;;2.60;99.90;;;;;;6241985;23;20136;-83
2023/01/28 03:59:31;;;;;;;7.53;5.50;;;2.50;99.90;;;;;;6239424;23;20183;-80
2023/01/28 04:01:56;;;;;;;6.55;4.68;;;2.50;99.90;;;;;;6241471;23;20156;-84
2023/01/28 04:04:23;;;;;;;8.27;5.00;;;2.60;99.90;;;;;;6242095;23;20168;-82
2023/01/28 04:06:52;;;;;;;5.05;3.30;;;2.60;99.90;;;;;;6242627;22;20523;-82
2023/01/28 04:09:19;;;;;;;5.30;3.88;;;2.50;99.90;;;;;;6243214;22;20153;-83
2023/01/28 04:11:44;;;;;;;6.93;4.63;;;2.50;99.90;;;;;;6243720;22;20145;-83
2023/01/28 04:14:10;;;;;;;7.23;4.50;;;2.50;99.90;;;;;;6240367;23;20152;-82
2023/01/28 04:16:35;;;;;;;6.50;4.30;;;2.40;99.90;;;;;;6241544;23;20505;-82
2023/01/28 04:19:01;;;;;;;6.37;4.57;;;2.30;99.90;;;;;;6242198;23;20184;-82
2023/01/28 04:21:26;;;;;;;7.07;4.80;;;2.30;99.90;;;;;;6239737;23;20152;-84
2023/01/28 04:23:52;;;;;;;7.33;4.70;;;2.20;99.90;;;;;;6239376;23;20152;-83
2023/01/28 04:26:17;;;;;;;9.03;4.90;;;2.10;99.90;;;;;;6238504;23;20226;-84
2023/01/28 04:28:43;;;;;;;6.63;4.77;;;2.00;99.90;;;;;;6240710;23;20611;-82
2023/01/28 04:31:08;;;;;;;7.57;5.33;;;1.90;99.90;;;;;;6240813;23;20620;-84
2023/01/28 04:33:34;;;;;;;7.30;4.90;;;1.80;99.90;;;;;;6235760;23;20158;-81
2023/01/28 04:36:00;;;;;;;8.47;5.53;;;1.70;99.90;;;;;;6237574;23;20187;-81
2023/01/28 04:38:25;;;;;;;8.80;5.60;;;1.70;99.90;;;;;;6238327;23;20173;-81
2023/01/28 04:40:52;;;;;;;10.77;6.20;;;1.60;99.90;;;;;;6239198;23;20390;-81
2023/01/28 04:43:18;;;;;;;8.63;6.40;;;1.60;99.90;;;;;;6239034;22;20152;-84
2023/01/28 04:45:45;;;;;;;8.65;6.00;;;1.50;99.90;;;;;;6237543;22;20165;-81
2023/01/28 04:48:11;;;;;;;10.20;6.47;;;1.50;99.90;;;;;;6238288;23;20490;-83
2023/01/28 04:50:37;;;;;;;13.73;6.70;;;1.50;99.90;;;;;;6240000;23;20156;-83
2023/01/28 04:53:02;;;;;;;10.63;6.53;;;1.60;99.90;;;;;;6247130;23;20386;-83
2023/01/28 04:55:28;;;;;;;12.43;6.00;;;1.60;99.90;;;;;;6239667;23;20638;-83
2023/01/28 04:57:53;;;;;;;9.77;6.60;;;1.60;99.90;;;;;;6242468;23;20172;-84
2023/01/28 05:00:19;;;;;;;15.90;6.60;;;1.60;99.90;;;;;;6240616;23;20530;-83
2023/01/28 05:02:44;;;;;;;60.23;35.70;;;1.60;99.90;;;;;;6238546;23;20243;-82
2023/01/28 05:05:10;;;;;;;13.30;8.60;;;1.60;99.90;;;;;;6239379;23;20259;-81
2023/01/28 05:07:36;;;;;;;9.77;8.27;;;1.60;99.90;;;;;;6240098;23;20684;-83
2023/01/28 05:10:01;;;;;;;11.63;6.13;;;1.50;99.90;;;;;;6241301;23;20163;-82
2023/01/28 05:12:27;;;;;;;11.60;7.30;;;1.50;99.90;;;;;;6245332;23;20356;-81
2023/01/28 05:14:52;;;;;;;14.00;8.00;;;1.40;99.90;;;;;;6244637;23;20175;-81
2023/01/28 05:17:18;;;;;;;8.57;5.90;;;1.40;99.90;;;;;;6242085;23;20160;-81
2023/01/28 05:19:45;;;;;;;9.10;5.90;;;1.30;99.90;;;;;;6246545;23;20184;-83
2023/01/28 05:22:10;;;;;;;14.23;9.45;;;1.30;99.90;;;;;;6246749;22;20198;-85
2023/01/28 05:24:36;;;;;;;11.10;7.00;;;1.30;99.90;;;;;;6245648;23;20518;-82
2023/01/28 05:27:01;;;;;;;12.60;5.50;;;1.30;99.90;;;;;;6242004;23;20144;-83
2023/01/28 05:29:27;;;;;;;10.47;6.53;;;1.30;99.90;;;;;;6245141;23;20160;-82
2023/01/28 05:31:53;;;;;;;13.07;7.83;;;1.20;99.90;;;;;;6243732;23;20708;-84
2023/01/28 05:34:18;;;;;;;10.10;6.00;;;1.20;99.90;;;;;;6240208;23;20666;-84
2023/01/28 05:36:43;;;;;;;16.80;8.30;;;1.30;99.90;;;;;;6240844;23;20553;-83
2023/01/28 05:39:09;;;;;;;14.93;7.47;;;1.30;99.90;;;;;;6238812;23;20171;-81
2023/01/28 05:41:34;;;;;;;12.83;8.27;;;1.40;99.90;;;;;;6240505;23;20194;-83
2023/01/28 05:44:00;;;;;;;12.93;8.00;;;1.40;99.90;;;;;;6239777;23;20634;-82
2023/01/28 05:46:26;;;;;;;13.70;8.17;;;1.40;99.90;;;;;;6240560;23;20187;-82
2023/01/28 05:48:51;;;;;;;14.20;7.40;;;1.50;99.90;;;;;;6237538;23;20251;-81
2023/01/28 05:51:17;;;;;;;13.00;7.27;;;1.50;99.90;;;;;;6237979;23;20187;-84
2023/01/28 05:53:42;;;;;;;15.93;8.10;;;1.50;99.90;;;;;;6239454;23;20184;-82
2023/01/28 05:56:08;;;;;;;12.40;9.27;;;1.60;99.90;;;;;;6237536;23;20176;-80
2023/01/28 05:58:33;;;;;;;14.23;9.00;;;1.50;99.90;;;;;;6239676;23;20180;-85
2023/01/28 06:00:59;;;;;;;11.53;7.37;;;1.50;99.90;;;;;;6237574;23;20180;-81
2023/01/28 06:03:24;;;;;;;16.17;9.27;;;1.50;99.90;;;;;;6238452;23;20522;-82
2023/01/28 06:05:50;;;;;;;9.80;7.23;;;1.50;99.90;;;;;;6237849;23;20228;-81
2023/01/28 06:08:16;;;;;;;17.33;8.70;;;1.50;99.90;;;;;;6239425;23;20225;-82
2023/01/28 06:10:41;;;;;;;13.87;8.40;;;1.50;99.90;;;;;;6236128;23;20156;-80
2023/01/28 06:13:07;;;;;;;11.70;7.60;;;1.60;99.90;;;;;;6232354;23;20171;-81
2023/01/28 06:15:32;;;;;;;16.47;9.20;;;1.60;99.90;;;;;;6242321;23;20198;-82
2023/01/28 06:17:58;;;;;;;10.50;7.40;;;1.60;99.90;;;;;;6237379;23;20196;-80
2023/01/28 06:20:23;;;;;;;15.87;7.37;;;1.50;99.90;;;;;;6237635;23;20210;-85
2023/01/28 06:22:50;;;;;;;13.07;9.20;;;1.50;99.90;;;;;;6240359;23;20155;-81
2023/01/28 06:25:16;;;;;;;14.90;8.30;;;1.50;99.90;;;;;;6236891;23;20786;-83
2023/01/28 06:27:42;;;;;;;19.88;9.65;;;1.50;99.90;;;;;;6237613;23;20152;-82
2023/01/28 06:30:08;;;;;;;16.50;8.50;;;1.60;99.90;;;;;;6240850;23;20141;-80
2023/01/28 06:32:34;;;;;;;15.23;8.65;;;1.60;99.90;;;;;;6239176;23;20148;-82
2023/01/28 06:34:59;;;;;;;13.30;8.23;;;1.70;99.90;;;;;;6238869;22;20242;-83
2023/01/28 06:37:25;;;;;;;13.60;8.23;;;1.70;99.90;;;;;;6237596;23;20202;-83
2023/01/28 06:39:50;;;;;;;12.50;7.60;;;1.60;99.90;;;;;;6238145;22;20148;-80
2023/01/28 06:42:17;;;;;;;15.70;7.90;;;1.60;99.90;;;;;;6237068;23;20154;-85
2023/01/28 06:44:42;;;;;;;17.45;8.90;;;1.60;99.90;;;;;;6240110;23;20176;-82
2023/01/28 06:47:09;;;;;;;15.20;8.93;;;1.70;99.90;;;;;;6238417;23;20153;-82
2023/01/28 06:49:35;;;;;;;12.38;8.98;;;1.70;99.90;;;;;;6238335;23;20160;-83
2023/01/28 06:52:01;;;;;;;17.70;9.13;;;1.60;99.90;;;;;;6240028;22;20155;-83
2023/01/28 06:54:28;;;;;;;14.23;8.33;;;1.60;99.90;;;;;;6240380;23;20544;-82
2023/01/28 06:56:53;;;;;;;14.40;8.77;;;1.50;99.90;;;;;;6241894;23;20204;-81
2023/01/28 06:59:19;;;;;;;16.60;8.90;;;1.50;99.90;;;;;;6241835;23;20643;-82
2023/01/28 07:01:44;;;;;;;12.73;7.77;;;1.50;99.90;;;;;;6240286;23;20183;-83
2023/01/28 07:04:10;;;;;;;16.30;9.13;;;1.50;99.90;;;;;;6241292;23;20144;-81
2023/01/28 07:06:35;;;;;;;17.40;10.17;;;1.50;99.90;;;;;;6239098;23;20178;-83
2023/01/28 07:09:01;;;;;;;12.70;8.63;;;1.50;99.90;;;;;;6242607;23;20169;-83
2023/01/28 07:11:27;;;;;;;18.50;9.10;;;1.50;99.90;;;;;;6248304;23;20152;-80
2023/01/28 07:13:52;;;;;;;21.92;9.68;;;1.60;99.90;;;;;;6242476;23;20157;-82
2023/01/28 07:16:18;;;;;;;17.20;10.80;;;1.60;99.90;;;;;;6241245;23;20169;-84
2023/01/28 07:18:44;;;;;;;19.43;9.97;;;1.70;99.90;;;;;;6242314;23;20184;-82
2023/01/28 07:21:09;;;;;;;18.63;9.73;;;1.70;99.90;;;;;;6243742;23;20152;-82
2023/01/28 07:23:35;;;;;;;20.27;10.60;;;1.80;99.90;;;;;;6244952;23;20156;-83
2023/01/28 07:26:03;;;;;;;19.60;12.10;;;1.80;99.90;;;;;;6252249;23;20723;-80
2023/01/28 07:28:29;;;;;;;15.38;9.95;;;1.80;99.90;;;;;;6252727;23;20152;-79
2023/01/28 07:30:55;;;;;;;20.70;10.90;;;1.80;99.90;;;;;;6243046;23;20194;-82
2023/01/28 07:33:21;;;;;;;19.90;9.30;;;1.80;99.90;;;;;;6240739;23;20375;-83
2023/01/28 07:35:47;;;;;;;20.27;10.20;;;1.80;99.90;;;;;;6239817;23;20395;-83
2023/01/28 07:38:12;;;;;;;87.50;40.53;;;1.80;99.90;;;;;;6248669;22;20241;-84
2023/01/28 07:40:38;;;;;;;103.93;45.20;;;1.80;99.90;;;;;;6241700;23;20418;-83
2023/01/28 07:43:06;;;;;;;24.90;14.20;;;1.80;99.90;;;;;;6237952;23;20144;-80
2023/01/28 07:45:32;;;;;;;17.50;10.32;;;1.90;99.90;;;;;;6240247;22;20748;-82
2023/01/28 07:48:04;;;;;;;19.15;10.93;;;2.00;99.90;;;;;;6241866;22;20201;-83
2023/01/28 07:50:31;;;;;;;16.58;10.30;;;2.00;99.90;;;;;;6241852;22;20701;-84
2023/01/28 07:52:58;;;;;;;17.95;10.43;;;2.00;99.90;;;;;;6239978;23;20157;-85
2023/01/28 07:55:24;;;;;;;19.48;11.45;;;2.10;99.90;;;;;;6240037;22;20164;-83
2023/01/28 07:57:54;;;;;;;19.55;11.32;;;2.10;99.90;;;;;;6241348;22;20183;-82
2023/01/28 08:00:21;;;;;;;17.02;9.57;;;2.00;99.90;;;;;;6239058;23;20156;-85
2023/01/28 08:02:48;;;;;;;19.80;10.88;;;2.00;99.90;;;;;;6241138;22;20828;-81
2023/01/28 08:05:18;;;;;;;14.27;9.15;;;1.90;99.90;;;;;;6236123;23;20259;-82
2023/01/28 08:07:45;;;;;;;20.80;11.88;;;2.00;99.90;;;;;;6236599;23;20176;-82
2023/01/28 08:10:11;;;;;;;17.30;10.82;;;2.20;99.90;;;;;;6240388;23;20194;-83
2023/01/28 08:12:38;;;;;;;21.02;11.52;;;2.30;99.90;;;;;;6239712;22;20175;-83
2023/01/28 08:15:04;;;;;;;17.98;9.57;;;2.30;99.90;;;;;;6235328;23;20199;-84
2023/01/28 08:17:29;;;;;;;17.25;9.75;;;2.20;99.90;;;;;;6239206;23;20200;-82
2023/01/28 08:19:55;;;;;;;16.70;9.33;;;2.10;99.90;;;;;;6234023;23;20164;-85
2023/01/28 08:22:24;;;;;;;18.97;9.37;;;2.20;99.90;;;;;;6239221;23;20155;-82
2023/01/28 08:24:51;;;;;;;14.93;9.80;;;2.30;99.90;;;;;;6237823;23;20173;-84
2023/01/28 08:27:16;;;;;;;20.55;10.30;;;2.20;99.90;;;;;;6240557;23;20485;-85
2023/01/28 08:29:42;;;;;;;20.40;10.43;;;2.40;99.90;;;;;;6236788;23;20202;-83
2023/01/28 08:32:09;;;;;;;17.08;9.15;;;2.40;99.90;;;;;;6238736;23;20595;-82
2023/01/28 08:34:35;;;;;;;22.20;10.80;;;2.50;99.90;;;;;;6238195;23;20156;-82
2023/01/28 08:37:00;;;;;;;18.17;9.43;;;2.50;99.90;;;;;;6237593;23;20149;-80
2023/01/28 08:39:26;;;;;;;18.47;10.23;;;2.60;99.90;;;;;;6236318;23;20693;-82
2023/01/28 08:41:51;;;;;;;18.50;10.97;;;2.60;99.90;;;;;;6239428;23;20239;-83
2023/01/28 08:44:17;;;;;;;16.50;9.57;;;2.40;99.90;;;;;;6236202;23;20193;-82
2023/01/28 08:46:42;;;;;;;16.70;10.27;;;2.40;99.90;;;;;;6238430;23;20195;-82
2023/01/28 08:49:08;;;;;;;17.03;10.60;;;2.50;99.90;;;;;;6237546;23;20218;-81
2023/01/28 08:51:34;;;;;;;17.87;9.50;;;2.50;99.90;;;;;;6236827;23;20172;-81
2023/01/28 08:53:59;;;;;;;19.90;11.50;;;2.40;99.90;;;;;;6248904;23;20462;-83
2023/01/28 08:56:25;;;;;;;19.23;10.53;;;2.50;99.90;;;;;;6242013;22;20169;-83
2023/01/28 08:58:51;;;;;;;24.07;10.87;;;2.60;99.90;;;;;;6241959;23;20196;-81
2023/01/28 09:01:16;;;;;;;18.13;10.50;;;2.60;99.90;;;;;;6240560;23;20155;-82
2023/01/28 09:03:42;;;;;;;17.50;10.43;;;2.60;99.90;;;;;;6253130;23;20787;-82
2023/01/28 09:06:07;;;;;;;22.43;11.00;;;2.50;99.90;;;;;;6244127;23;20259;-83
2023/01/28 09:08:33;;;;;;;19.60;10.27;;;2.50;99.90;;;;;;6244266;23;20161;-84
2023/01/28 09:10:59;;;;;;;22.03;10.60;;;2.40;99.90;;;;;;6242613;23;20156;-84
2023/01/28 09:13:25;;;;;;;28.08;12.48;;;2.50;99.90;;;;;;6241711;23;20148;-83
2023/01/28 09:15:52;;;;;;;20.02;10.73;;;2.40;99.90;;;;;;6240640;23;20649;-83
2023/01/28 09:18:18;;;;;;;21.33;12.40;;;2.40;99.90;;;;;;6239954;23;20698;-84
2023/01/28 09:20:43;;;;;;;22.90;10.23;;;2.30;99.90;;;;;;6239397;23;20543;-81
2023/01/28 09:23:09;;;;;;;18.80;11.00;;;2.50;99.90;;;;;;6237955;23;20141;-83
2023/01/28 09:25:35;;;;;;;18.30;10.30;;;2.50;99.90;;;;;;6240814;22;20219;-83
2023/01/28 09:28:01;;;;;;;18.80;9.70;;;2.40;99.90;;;;;;6240523;23;20247;-81
2023/01/28 09:30:27;;;;;;;19.73;10.02;;;2.40;99.90;;;;;;6242664;22;21168;-83
2023/01/28 09:32:55;;;;;;;19.13;10.73;;;2.50;99.90;;;;;;6235663;22;20172;-81
2023/01/28 09:35:21;;;;;;;17.00;8.95;;;2.40;99.90;;;;;;6240489;22;20236;-80
2023/01/28 09:37:47;;;;;;;22.33;11.13;;;2.40;99.90;;;;;;6254549;23;20215;-79
2023/01/28 09:40:34;;;;;;;18.95;10.13;;;2.40;99.90;;;;;;6243274;23;20153;-81
2023/01/28 09:43:14;;;;;;;23.20;10.82;;;2.40;99.90;;;;;;6239494;22;20155;-80
2023/01/28 09:45:43;;;;;;;18.83;9.82;;;2.30;99.90;;;;;;6238747;23;20653;-82
2023/01/28 09:48:15;;;;;;;18.20;9.43;;;2.40;99.90;;;;;;6239085;23;20210;-83
2023/01/28 09:50:45;;;;;;;14.13;8.60;;;2.40;99.90;;;;;;6234633;23;20144;-83
2023/01/28 09:53:34;;;;;;;18.98;10.55;;;2.30;99.90;;;;;;6240640;23;20572;-83
2023/01/28 09:56:01;;;;;;;19.70;10.43;;;2.40;99.90;;;;;;6238241;23;20180;-82
2023/01/28 09:58:27;;;;;;;18.25;10.32;;;2.50;99.90;;;;;;6231865;23;20169;-81
2023/01/28 10:01:19;;;;;;;17.38;9.50;;;2.50;99.90;;;;;;6236650;23;20140;-85
2023/01/28 10:04:13;;;;;;;22.08;12.88;;;2.40;99.90;;;;;;6237481;23;20669;-82
2023/01/28 10:07:02;;;;;;;19.83;9.75;;;2.40;99.90;;;;;;6239081;23;20179;-81
2023/01/28 10:10:01;;;;;;;21.30;11.95;;;2.40;99.90;;;;;;6248070;23;20175;-82
2023/01/28 10:12:45;;;;;;;18.92;10.70;;;2.50;99.90;;;;;;6222344;22;20163;-81
2023/01/28 10:15:35;;;;;;;17.40;10.02;;;2.50;99.90;;;;;;6232669;23;20172;-81
2023/01/28 10:18:07;;;;;;;16.73;7.70;;;2.70;99.90;;;;;;6232073;23;20185;-81
2023/01/28 10:20:40;;;;;;;15.70;8.00;;;2.80;99.90;;;;;;6230985;23;20236;-81
2023/01/28 10:23:27;;;;;;;17.00;9.32;;;2.80;99.90;;;;;;6230510;23;20148;-82
2023/01/28 10:25:56;;;;;;;14.52;8.88;;;2.80;99.90;;;;;;6229732;23;20180;-81
2023/01/28 10:28:25;;;;;;;14.18;8.38;;;2.60;99.90;;;;;;6229808;23;20808;-82
2023/01/28 10:30:51;;;;;;;14.38;8.82;;;2.50;99.90;;;;;;6232304;23;20149;-83
2023/01/28 10:33:26;;;;;;;20.73;9.77;;;2.40;99.90;;;;;;6237129;23;20904;-81
2023/01/28 10:35:52;;;;;;;23.60;9.55;;;2.30;99.90;;;;;;6232188;23;20187;-83
2023/01/28 10:38:23;;;;;;;17.75;8.70;;;2.30;99.90;;;;;;6230787;22;20176;-82
2023/01/28 10:40:49;;;;;;;12.63;7.43;;;2.30;99.90;;;;;;6232445;22;20168;-81
2023/01/28 10:43:36;;;;;;;16.38;7.47;;;2.30;99.90;;;;;;6230029;23;20152;-84
2023/01/28 10:46:06;;;;;;;14.32;7.72;;;2.20;99.90;;;;;;6226905;22;20195;-80
2023/01/28 10:48:36;;;;;;;12.40;6.90;;;2.10;99.90;;;;;;6229472;22;20145;-81
2023/01/28 10:51:05;;;;;;;15.32;8.20;;;2.10;99.90;;;;;;6222920;23;20222;-82
2023/01/28 10:53:44;;;;;;;18.92;8.48;;;2.00;99.90;;;;;;6239011;22;20171;-82
2023/01/28 10:56:22;;;;;;;16.30;8.15;;;1.90;99.90;;;;;;6226213;23;20768;-83
2023/01/28 10:59:17;;;;;;;15.00;8.75;;;1.90;99.90;;;;;;6225190;23;20720;-84
2023/01/28 11:01:49;;;;;;;13.80;9.05;;;2.00;99.90;;;;;;6228165;22;20591;-81
2023/01/28 11:04:26;;;;;;;15.32;8.35;;;2.10;99.90;;;;;;6224837;23;20192;-79
2023/01/28 11:06:59;;;;;;;22.08;8.48;;;2.20;99.90;;;;;;6231193;22;20800;-82
2023/01/28 11:09:31;;;;;;;18.88;9.32;;;2.30;99.90;;;;;;6234204;23;20133;-82
2023/01/28 11:11:58;;;;;;;18.08;9.75;;;2.30;99.90;;;;;;6234018;22;20216;-83
2023/01/28 11:14:26;;;;;;;17.40;9.75;;;2.40;99.90;;;;;;6233296;22;20156;-83
2023/01/28 11:16:54;;;;;;;18.95;9.73;;;2.50;99.90;;;;;;6236536;22;20210;-82
2023/01/28 11:19:33;;;;;;;17.17;9.75;;;2.50;99.90;;;;;;6232165;22;20168;-82
2023/01/28 11:22:00;;;;;;;14.10;8.75;;;2.50;99.90;;;;;;6232528;23;20153;-84
2023/01/28 11:24:31;;;;;;;18.92;8.80;;;2.60;99.90;;;;;;6230545;23;20156;-82
2023/01/28 11:26:58;;;;;;;14.45;7.88;;;2.60;99.90;;;;;;6241576;23;20235;-82
2023/01/28 11:29:30;;;;;;;17.92;8.15;;;2.70;99.90;;;;;;6243364;22;20221;-79
2023/01/28 11:31:57;;;;;;;12.70;6.95;;;2.70;99.90;;;;;;6244576;23;20160;-82
2023/01/28 11:34:26;;;;;;;12.43;7.03;;;2.70;99.90;;;;;;6246951;22;20228;-80
2023/01/28 11:37:11;;;;;;;13.43;6.00;;;2.60;99.90;;;;;;6242243;23;20160;-82
2023/01/28 11:39:36;;;;;;;10.75;6.53;;;2.40;99.90;;;;;;6244467;23;20206;-81
2023/01/28 11:42:20;;;;;;;10.60;6.80;;;2.40;99.90;;;;;;6250962;23;20153;-80
2023/01/28 11:44:47;;;;;;;14.57;7.25;;;2.40;99.90;;;;;;6248224;22;20168;-81
2023/01/28 11:47:37;;;;;;;12.38;7.10;;;2.40;99.90;;;;;;6242059;22;20645;-80
2023/01/28 11:50:38;;;;;;;13.77;7.15;;;2.30;99.90;;;;;;6240321;23;20152;-80
2023/01/28 11:53:24;;;;;;;11.38;6.55;;;2.30;99.90;;;;;;6239517;23;20132;-78
2023/01/28 11:55:59;;;;;;;10.13;5.65;;;2.30;99.90;;;;;;6233325;23;20168;-80
2023/01/28 11:58:36;;;;;;;9.80;5.70;;;2.30;99.90;;;;;;6237598;23;20171;-83
2023/01/28 12:01:25;;;;;;;14.30;6.32;;;2.30;99.90;;;;;;6242300;23;20145;-84
2023/01/28 12:04:15;;;;;;;9.25;5.88;;;2.30;99.90;;;;;;6196732;22;20152;-83
2023/01/28 12:07:10;;;;;;;11.50;5.78;;;2.30;99.90;;;;;;6237626;23;20172;-81
2023/01/28 12:09:57;;;;;;;9.07;6.03;;;2.30;99.90;;;;;;6235617;23;20199;-84
2023/01/28 12:12:47;;;;;;;9.25;6.10;;;2.20;99.90;;;;;;6238891;22;20223;-82
2023/01/28 12:15:40;;;;;;;10.35;6.63;;;2.20;99.90;;;;;;6228955;23;20207;-83
2023/01/28 12:18:50;;;;;;;13.32;6.75;;;2.10;99.90;;;;;;6238279;22;20180;-83
2023/01/28 12:21:28;;;;;;;9.30;4.95;;;2.10;99.90;;;;;;6256756;22;20153;-84
2023/01/28 12:24:01;;;;;;;8.80;5.38;;;2.10;99.90;;;;;;6241518;23;20176;-80
2023/01/28 12:26:39;;;;;;;7.82;6.50;;;2.10;99.90;;;;;;6243372;23;20227;-83
2023/01/28 12:29:23;;;;;;;11.90;5.90;;;2.10;99.90;;;;;;6242223;23;20256;-83
2023/01/28 12:31:52;;;;;;;8.18;5.53;;;0.30;99.90;;;;;;6234990;23;20172;-84
2023/01/28 12:34:36;;;;;;;7.07;5.10;;;2.20;99.90;;;;;;6239263;23;20159;-83
2023/01/28 12:37:16;;;;;;;10.57;6.15;;;2.20;99.90;;;;;;6233369;23;20587;-84
2023/01/28 12:40:14;;;;;;;14.05;6.90;;;2.30;99.90;;;;;;6238005;23;20168;-83
2023/01/28 12:42:52;;;;;;;18.80;7.82;;;2.30;99.90;;;;;;6188624;22;20156;-82
2023/01/28 12:45:32;;;;;;;12.10;6.97;;;2.40;99.90;;;;;;6240981;22;20169;-82
2023/01/28 12:48:06;;;;;;;11.63;7.57;;;2.40;99.90;;;;;;6236856;23;20147;-82
2023/01/28 12:50:39;;;;;;;12.68;8.52;;;2.50;99.90;;;;;;6238147;23;20742;-83
2023/01/28 12:53:28;;;;;;;13.48;7.53;;;2.50;99.90;;;;;;6234163;22;20689;-81
2023/01/28 12:56:07;;;;;;;9.32;6.80;;;2.50;99.90;;;;;;6233536;23;20176;-81
2023/01/28 12:58:54;;;;;;;11.85;6.95;;;2.60;99.90;;;;;;6239842;22;20204;-82
2023/01/28 13:01:35;;;;;;;10.57;6.30;;;2.70;99.90;;;;;;6236087;23;20145;-82
2023/01/28 13:04:28;;;;;;;13.73;7.50;;;2.80;99.90;;;;;;6236183;23;20204;-83
2023/01/28 13:07:29;;;;;;;9.98;6.53;;;2.80;99.90;;;;;;6239301;23;20161;-81
2023/01/28 13:10:08;;;;;;;10.50;6.25;;;2.80;99.90;;;;;;6244793;22;20208;-83
2023/01/28 13:12:37;;;;;;;12.93;6.80;;;2.80;99.90;;;;;;6238119;23;20141;-81
2023/01/28 13:15:05;;;;;;;13.65;5.65;;;2.60;99.90;;;;;;6239322;23;20181;-83
2023/01/28 13:17:31;;;;;;;8.68;4.75;;;2.50;99.90;;;;;;6238865;23;20164;-81
2023/01/28 13:19:58;;;;;;;7.50;5.00;;;2.60;99.90;;;;;;6235652;23;20305;-83
2023/01/28 13:22:31;;;;;;;7.32;4.32;;;2.60;99.90;;;;;;6229707;22;20689;-83
2023/01/28 13:25:18;;;;;;;6.13;4.43;;;2.60;99.90;;;;;;6233910;23;20169;-80
2023/01/28 13:27:57;;;;;;;7.82;5.28;;;2.60;99.90;;;;;;6233674;23;20593;-82
2023/01/28 13:30:26;;;;;;;8.23;5.50;;;2.60;99.90;;;;;;6239162;23;20160;-83
2023/01/28 13:32:59;;;;;;;8.15;5.45;;;2.70;99.90;;;;;;6241077;23;20190;-84
2023/01/28 13:35:30;;;;;;;10.18;5.10;;;2.60;99.90;;;;;;6242898;23;20179;-84
2023/01/28 13:37:58;;;;;;;7.47;4.70;;;2.50;99.90;;;;;;6240911;23;20157;-83
2023/01/28 13:40:27;;;;;;;9.88;5.10;;;2.60;99.90;;;;;;6239684;22;20211;-83